DAL258 KSLC-KDTW
Flight info
| Callsign | DAL258 |
|---|---|
| Flight time | 3h 1m |
| Altitude | 33000 |
| Route | RUGGD3 OCS CKW KURSE Q122 ONL/N0451F350 J148 MCW J16 BAE PORZL RKCTY2 |
| Aircraft | B739/M-SDE2E3FGHIRWXY/LB1 |
Departure
| Time | 2026-05-04 01:04 |
|---|---|
| Airport | Salt Lake City International Airport (KSLC) |
Arrival
| Time | 2026-05-04 04:06 |
|---|---|
| Airport | Detroit Metropolitan Wayne County Airport (KDTW) |
| Time | Latitude | Longitude | Altitude | Speed | Heading |
|---|---|---|---|---|---|
| 2026-05-04 00:44 | 40.78535 | -111.98100 | 4234 ft | 0 kts | 354° |
| 2026-05-04 00:56 | 40.78532 | -111.98100 | 4234 ft | 2 kts | 354° |
| 2026-05-04 00:56 | 40.78517 | -111.98098 | 4233 ft | 2 kts | 355° |
| 2026-05-04 00:56 | 40.78500 | -111.98099 | 4232 ft | 3 kts | 26° |
| 2026-05-04 00:56 | 40.78489 | -111.98112 | 4231 ft | 3 kts | 71° |
| 2026-05-04 00:57 | 40.78485 | -111.98134 | 4231 ft | 1 kts | 84° |
| 2026-05-04 00:57 | 40.78485 | -111.98137 | 4231 ft | 1 kts | 85° |
| 2026-05-04 01:00 | 40.78485 | -111.98136 | 4231 ft | 1 kts | 86° |
| 2026-05-04 01:00 | 40.78471 | -111.98093 | 4240 ft | 9 kts | 116° |
| 2026-05-04 01:00 | 40.78447 | -111.97975 | 4234 ft | 17 kts | 88° |
| 2026-05-04 01:00 | 40.78459 | -111.97795 | 4234 ft | 22 kts | 87° |
| 2026-05-04 01:01 | 40.78418 | -111.97650 | 4233 ft | 15 kts | 150° |
| 2026-05-04 01:01 | 40.78316 | -111.97630 | 4233 ft | 16 kts | 174° |
| 2026-05-04 01:01 | 40.78182 | -111.97614 | 4233 ft | 22 kts | 175° |
| 2026-05-04 01:01 | 40.78007 | -111.97594 | 4231 ft | 28 kts | 175° |
| 2026-05-04 01:02 | 40.77812 | -111.97521 | 4234 ft | 30 kts | 174° |
| 2026-05-04 01:02 | 40.77617 | -111.97499 | 4234 ft | 19 kts | 175° |
| 2026-05-04 01:02 | 40.77564 | -111.97454 | 4234 ft | 0 kts | 104° |
| 2026-05-04 01:03 | 40.77562 | -111.97443 | 4234 ft | 5 kts | 104° |
| 2026-05-04 01:03 | 40.77572 | -111.97358 | 4234 ft | 14 kts | 61° |
| 2026-05-04 01:03 | 40.77606 | -111.97333 | 4234 ft | 0 kts | 356° |
| 2026-05-04 01:03 | 40.77719 | -111.97345 | 4234 ft | 48 kts | 354° |
| 2026-05-04 01:04 | 40.78276 | -111.97409 | 4233 ft | 111 kts | 355° |
| 2026-05-04 01:04 | 40.79228 | -111.97521 | 4234 ft | 161 kts | 355° |
| 2026-05-04 01:04 | 40.80423 | -111.97657 | 4597 ft | 174 kts | 355° |
| 2026-05-04 01:04 | 40.81655 | -111.97778 | 5312 ft | 180 kts | 356° |
| 2026-05-04 01:05 | 40.82942 | -111.97944 | 5771 ft | 192 kts | 353° |
| 2026-05-04 01:05 | 40.84308 | -111.98177 | 6097 ft | 208 kts | 352° |
| 2026-05-04 01:05 | 40.85827 | -111.98450 | 6213 ft | 231 kts | 352° |
| 2026-05-04 01:05 | 40.87488 | -111.98748 | 6411 ft | 250 kts | 352° |
| 2026-05-04 01:06 | 40.89262 | -111.99058 | 6643 ft | 266 kts | 352° |
| 2026-05-04 01:06 | 40.91160 | -111.99383 | 6919 ft | 282 kts | 352° |
| 2026-05-04 01:06 | 40.92458 | -111.99602 | 7341 ft | 284 kts | 352° |
| 2026-05-04 01:06 | 40.94414 | -111.99929 | 8116 ft | 284 kts | 352° |
| 2026-05-04 01:07 | 40.96393 | -112.00258 | 8828 ft | 289 kts | 352° |
| 2026-05-04 01:07 | 40.98395 | -112.00589 | 9573 ft | 291 kts | 352° |
| 2026-05-04 01:07 | 41.00420 | -112.00924 | 10232 ft | 296 kts | 352° |
| 2026-05-04 01:07 | 41.02543 | -112.01120 | 10445 ft | 319 kts | 5° |
| 2026-05-04 01:08 | 41.04707 | -112.00160 | 10625 ft | 341 kts | 32° |
| 2026-05-04 01:08 | 41.06410 | -111.97883 | 10806 ft | 361 kts | 59° |
| 2026-05-04 01:08 | 41.07502 | -111.94830 | 11219 ft | 372 kts | 68° |
| 2026-05-04 01:08 | 41.08483 | -111.91635 | 11823 ft | 375 kts | 68° |
| 2026-05-04 01:09 | 41.09503 | -111.88450 | 12531 ft | 377 kts | 66° |
| 2026-05-04 01:09 | 41.10583 | -111.85253 | 13079 ft | 383 kts | 66° |
| 2026-05-04 01:09 | 41.11704 | -111.82043 | 13748 ft | 384 kts | 65° |
| 2026-05-04 01:09 | 41.12681 | -111.78727 | 14212 ft | 389 kts | 78° |
| 2026-05-04 01:10 | 41.12937 | -111.75171 | 14799 ft | 389 kts | 94° |
| 2026-05-04 01:10 | 41.12460 | -111.71640 | 15336 ft | 391 kts | 108° |
| 2026-05-04 01:10 | 41.11612 | -111.68207 | 15905 ft | 394 kts | 110° |
| 2026-05-04 01:10 | 41.10726 | -111.64761 | 16482 ft | 396 kts | 110° |
| 2026-05-04 01:11 | 41.09839 | -111.61280 | 17014 ft | 400 kts | 110° |
| 2026-05-04 01:11 | 41.08960 | -111.57762 | 17531 ft | 404 kts | 109° |
| 2026-05-04 01:11 | 41.08093 | -111.54239 | 18018 ft | 408 kts | 109° |
| 2026-05-04 01:11 | 41.07217 | -111.50646 | 18484 ft | 411 kts | 109° |
| 2026-05-04 01:12 | 41.06335 | -111.47030 | 18976 ft | 414 kts | 109° |
| 2026-05-04 01:12 | 41.05478 | -111.43374 | 19446 ft | 418 kts | 105° |
| 2026-05-04 01:12 | 41.05003 | -111.39552 | 19897 ft | 423 kts | 95° |
| 2026-05-04 01:12 | 41.05016 | -111.35645 | 20390 ft | 427 kts | 85° |
| 2026-05-04 01:13 | 41.05362 | -111.31734 | 20895 ft | 429 kts | 83° |
| 2026-05-04 01:13 | 41.05751 | -111.27799 | 21321 ft | 433 kts | 83° |
| 2026-05-04 01:13 | 41.06135 | -111.23832 | 21748 ft | 436 kts | 83° |
| 2026-05-04 01:13 | 41.06504 | -111.19831 | 22194 ft | 439 kts | 84° |
| 2026-05-04 01:14 | 41.06858 | -111.15799 | 22630 ft | 442 kts | 84° |
| 2026-05-04 01:14 | 41.07207 | -111.11739 | 23073 ft | 445 kts | 84° |
| 2026-05-04 01:14 | 41.07558 | -111.07651 | 23486 ft | 448 kts | 83° |
| 2026-05-04 01:14 | 41.08138 | -111.03578 | 23820 ft | 452 kts | 74° |
| 2026-05-04 01:15 | 41.09135 | -110.99622 | 24204 ft | 454 kts | 70° |
| 2026-05-04 01:15 | 41.10216 | -110.95681 | 24605 ft | 455 kts | 70° |
| 2026-05-04 01:15 | 41.11304 | -110.91731 | 24966 ft | 458 kts | 70° |
| 2026-05-04 01:15 | 41.12381 | -110.87745 | 25302 ft | 460 kts | 71° |
| 2026-05-04 01:16 | 41.13444 | -110.83734 | 25637 ft | 462 kts | 71° |
| 2026-05-04 01:16 | 41.14500 | -110.79697 | 25969 ft | 464 kts | 71° |
| 2026-05-04 01:16 | 41.15558 | -110.75638 | 26304 ft | 466 kts | 71° |
| 2026-05-04 01:16 | 41.16618 | -110.71559 | 26609 ft | 469 kts | 71° |
| 2026-05-04 01:17 | 41.17678 | -110.67459 | 26906 ft | 471 kts | 71° |
| 2026-05-04 01:17 | 41.18740 | -110.63331 | 27240 ft | 473 kts | 71° |
| 2026-05-04 01:17 | 41.19807 | -110.59175 | 27570 ft | 476 kts | 71° |
| 2026-05-04 01:17 | 41.20876 | -110.55007 | 27900 ft | 478 kts | 71° |
| 2026-05-04 01:18 | 41.21949 | -110.50818 | 28213 ft | 480 kts | 71° |
| 2026-05-04 01:18 | 41.23024 | -110.46614 | 28512 ft | 482 kts | 71° |
| 2026-05-04 01:18 | 41.24105 | -110.42379 | 28806 ft | 484 kts | 71° |
| 2026-05-04 01:18 | 41.25187 | -110.38134 | 29177 ft | 485 kts | 71° |
| 2026-05-04 01:19 | 41.26264 | -110.33902 | 29638 ft | 483 kts | 71° |
| 2026-05-04 01:19 | 41.27337 | -110.29681 | 30084 ft | 481 kts | 71° |
| 2026-05-04 01:19 | 41.28407 | -110.25459 | 30405 ft | 481 kts | 71° |
| 2026-05-04 01:19 | 41.29475 | -110.21242 | 30689 ft | 482 kts | 71° |
| 2026-05-04 01:20 | 41.30527 | -110.17078 | 30984 ft | 481 kts | 71° |
| 2026-05-04 01:20 | 41.31594 | -110.12851 | 31299 ft | 481 kts | 71° |
| 2026-05-04 01:20 | 41.32656 | -110.08633 | 31593 ft | 480 kts | 71° |
| 2026-05-04 01:20 | 41.33713 | -110.04427 | 31878 ft | 480 kts | 71° |
| 2026-05-04 01:21 | 41.34769 | -110.00218 | 32146 ft | 480 kts | 71° |
| 2026-05-04 01:21 | 41.35822 | -109.96011 | 32403 ft | 480 kts | 71° |
| 2026-05-04 01:21 | 41.36878 | -109.91789 | 32666 ft | 479 kts | 71° |
| 2026-05-04 01:21 | 41.37929 | -109.87577 | 32884 ft | 479 kts | 71° |
| 2026-05-04 01:22 | 41.38981 | -109.83356 | 32843 ft | 480 kts | 71° |
| 2026-05-04 01:22 | 41.41073 | -109.74935 | 32841 ft | 478 kts | 71° |
| 2026-05-04 01:23 | 41.43154 | -109.66527 | 32851 ft | 477 kts | 71° |
| 2026-05-04 01:23 | 41.45226 | -109.58126 | 32858 ft | 477 kts | 71° |
| 2026-05-04 01:24 | 41.47291 | -109.49726 | 32849 ft | 477 kts | 71° |
| 2026-05-04 01:24 | 41.49336 | -109.41376 | 32893 ft | 477 kts | 71° |
| 2026-05-04 01:25 | 41.51393 | -109.32949 | 32933 ft | 478 kts | 71° |
| 2026-05-04 01:25 | 41.53444 | -109.24512 | 32982 ft | 478 kts | 71° |
| 2026-05-04 01:26 | 41.55492 | -109.16055 | 33011 ft | 479 kts | 71° |
| 2026-05-04 01:26 | 41.57540 | -109.07574 | 33010 ft | 480 kts | 71° |
| 2026-05-04 01:27 | 41.59425 | -108.99013 | 33002 ft | 482 kts | 78° |
| 2026-05-04 01:27 | 41.60517 | -108.90181 | 32990 ft | 483 kts | 81° |
| 2026-05-04 01:28 | 41.61497 | -108.81302 | 32953 ft | 483 kts | 81° |
| 2026-05-04 01:28 | 41.62519 | -108.72416 | 32917 ft | 484 kts | 80° |
| 2026-05-04 01:29 | 41.63566 | -108.63589 | 32870 ft | 484 kts | 80° |
| 2026-05-04 01:29 | 41.64623 | -108.54698 | 32848 ft | 484 kts | 80° |
| 2026-05-04 01:30 | 41.65673 | -108.45805 | 32846 ft | 484 kts | 80° |
| 2026-05-04 01:30 | 41.66715 | -108.36894 | 32843 ft | 484 kts | 80° |
| 2026-05-04 01:31 | 41.67748 | -108.27997 | 32841 ft | 484 kts | 80° |
| 2026-05-04 01:31 | 41.68773 | -108.19096 | 32841 ft | 484 kts | 80° |
| 2026-05-04 01:32 | 41.69794 | -108.10184 | 32833 ft | 484 kts | 80° |
| 2026-05-04 01:32 | 41.70799 | -108.01336 | 32833 ft | 484 kts | 80° |
| 2026-05-04 01:33 | 41.71805 | -107.92424 | 32831 ft | 484 kts | 80° |
| 2026-05-04 01:33 | 41.72803 | -107.83514 | 32831 ft | 484 kts | 80° |
| 2026-05-04 01:34 | 41.73796 | -107.74585 | 32828 ft | 485 kts | 80° |
| 2026-05-04 01:34 | 41.74784 | -107.65649 | 32843 ft | 485 kts | 80° |
| 2026-05-04 01:35 | 41.75769 | -107.56716 | 32885 ft | 485 kts | 79° |
| 2026-05-04 01:35 | 41.76977 | -107.47817 | 32939 ft | 485 kts | 77° |
| 2026-05-04 01:36 | 41.78283 | -107.39004 | 32978 ft | 486 kts | 77° |
| 2026-05-04 01:36 | 41.79575 | -107.30103 | 33007 ft | 487 kts | 77° |
| 2026-05-04 01:37 | 41.80834 | -107.21166 | 33016 ft | 488 kts | 77° |
| 2026-05-04 01:37 | 41.82077 | -107.12213 | 33009 ft | 489 kts | 77° |
| 2026-05-04 01:38 | 41.83315 | -107.03244 | 32988 ft | 489 kts | 77° |
| 2026-05-04 01:38 | 41.84549 | -106.94256 | 32942 ft | 490 kts | 77° |
| 2026-05-04 01:39 | 41.85777 | -106.85257 | 32903 ft | 491 kts | 77° |
| 2026-05-04 01:39 | 41.86991 | -106.76318 | 32859 ft | 491 kts | 77° |
| 2026-05-04 01:40 | 41.88202 | -106.67341 | 32854 ft | 492 kts | 77° |
| 2026-05-04 01:40 | 41.89414 | -106.58303 | 32851 ft | 492 kts | 77° |
| 2026-05-04 01:41 | 41.90619 | -106.49252 | 32862 ft | 492 kts | 77° |
| 2026-05-04 01:41 | 41.91818 | -106.40199 | 32862 ft | 492 kts | 77° |
| 2026-05-04 01:42 | 41.93010 | -106.31140 | 32857 ft | 492 kts | 77° |
| 2026-05-04 01:42 | 41.94194 | -106.22081 | 32861 ft | 492 kts | 77° |
| 2026-05-04 01:43 | 41.95370 | -106.13024 | 32866 ft | 492 kts | 77° |
| 2026-05-04 01:43 | 41.96538 | -106.03977 | 32863 ft | 492 kts | 77° |
| 2026-05-04 01:44 | 41.97700 | -105.94911 | 32865 ft | 492 kts | 77° |
| 2026-05-04 01:44 | 41.98854 | -105.85854 | 32867 ft | 492 kts | 78° |
| 2026-05-04 01:45 | 41.99994 | -105.76846 | 32866 ft | 492 kts | 78° |
| 2026-05-04 01:45 | 42.01700 | -105.63254 | 32864 ft | 492 kts | 78° |
| 2026-05-04 01:46 | 42.02831 | -105.54172 | 32872 ft | 491 kts | 78° |
| 2026-05-04 01:46 | 42.03952 | -105.45103 | 32879 ft | 491 kts | 78° |
| 2026-05-04 01:47 | 42.05068 | -105.36023 | 32884 ft | 492 kts | 78° |
| 2026-05-04 01:47 | 42.06169 | -105.26997 | 32905 ft | 491 kts | 78° |
| 2026-05-04 01:48 | 42.07269 | -105.17922 | 32919 ft | 491 kts | 78° |
| 2026-05-04 01:48 | 42.08248 | -105.08805 | 32934 ft | 492 kts | 80° |
| 2026-05-04 01:49 | 42.09023 | -104.99641 | 32941 ft | 493 kts | 81° |
| 2026-05-04 01:49 | 42.09781 | -104.90460 | 32935 ft | 493 kts | 81° |
| 2026-05-04 01:50 | 42.10562 | -104.81272 | 32935 ft | 493 kts | 81° |
| 2026-05-04 01:50 | 42.11348 | -104.72155 | 32911 ft | 494 kts | 81° |
| 2026-05-04 01:51 | 42.12137 | -104.62955 | 32910 ft | 494 kts | 81° |
| 2026-05-04 01:51 | 42.12918 | -104.53746 | 32908 ft | 494 kts | 81° |
| 2026-05-04 01:52 | 42.13691 | -104.44538 | 32903 ft | 494 kts | 81° |
| 2026-05-04 01:52 | 42.14454 | -104.35339 | 32903 ft | 494 kts | 81° |
| 2026-05-04 01:53 | 42.15212 | -104.26128 | 32903 ft | 495 kts | 81° |
| 2026-05-04 01:53 | 42.15836 | -104.18461 | 32896 ft | 495 kts | 81° |
| 2026-05-04 01:54 | 42.16701 | -104.07739 | 32896 ft | 495 kts | 81° |
| 2026-05-04 01:54 | 42.17437 | -103.98511 | 32912 ft | 495 kts | 81° |
| 2026-05-04 01:55 | 42.18047 | -103.90785 | 32902 ft | 495 kts | 81° |
| 2026-05-04 01:55 | 42.18771 | -103.81542 | 32889 ft | 495 kts | 81° |
| 2026-05-04 01:56 | 42.19482 | -103.72356 | 32894 ft | 495 kts | 81° |
| 2026-05-04 01:56 | 42.20189 | -103.63129 | 32904 ft | 494 kts | 81° |
| 2026-05-04 01:57 | 42.20889 | -103.53893 | 32894 ft | 494 kts | 81° |
| 2026-05-04 01:57 | 42.21580 | -103.44673 | 32900 ft | 493 kts | 81° |
| 2026-05-04 01:58 | 42.22263 | -103.35464 | 32907 ft | 493 kts | 81° |
| 2026-05-04 01:58 | 42.22933 | -103.26328 | 32903 ft | 492 kts | 81° |
| 2026-05-04 01:59 | 42.23600 | -103.17135 | 32914 ft | 492 kts | 81° |
| 2026-05-04 01:59 | 42.24259 | -103.07953 | 32913 ft | 491 kts | 81° |
| 2026-05-04 02:00 | 42.24910 | -102.98777 | 32919 ft | 491 kts | 81° |
| 2026-05-04 02:00 | 42.25553 | -102.89594 | 32919 ft | 491 kts | 81° |
| 2026-05-04 02:01 | 42.26189 | -102.80418 | 32922 ft | 491 kts | 81° |
| 2026-05-04 02:01 | 42.26818 | -102.71240 | 32923 ft | 491 kts | 81° |
| 2026-05-04 02:02 | 42.27439 | -102.62066 | 32928 ft | 491 kts | 81° |
| 2026-05-04 02:02 | 42.28053 | -102.52876 | 32936 ft | 491 kts | 81° |
| 2026-05-04 02:03 | 42.28660 | -102.43686 | 32937 ft | 491 kts | 81° |
| 2026-05-04 02:03 | 42.29261 | -102.34483 | 32935 ft | 491 kts | 81° |
| 2026-05-04 02:04 | 42.29849 | -102.25352 | 32927 ft | 491 kts | 82° |
| 2026-05-04 02:04 | 42.30433 | -102.16173 | 32918 ft | 490 kts | 82° |
| 2026-05-04 02:05 | 42.31009 | -102.06998 | 32910 ft | 489 kts | 82° |
| 2026-05-04 02:05 | 42.31576 | -101.97847 | 32913 ft | 488 kts | 82° |
| 2026-05-04 02:06 | 42.32135 | -101.88724 | 32909 ft | 487 kts | 82° |
| 2026-05-04 02:06 | 42.32685 | -101.79605 | 32908 ft | 486 kts | 82° |
| 2026-05-04 02:07 | 42.33228 | -101.70503 | 32887 ft | 485 kts | 82° |
| 2026-05-04 02:07 | 42.33762 | -101.61418 | 32888 ft | 484 kts | 82° |
| 2026-05-04 02:08 | 42.34285 | -101.52408 | 32880 ft | 484 kts | 82° |
| 2026-05-04 02:08 | 42.34803 | -101.43347 | 32874 ft | 483 kts | 82° |
| 2026-05-04 02:09 | 42.35313 | -101.34304 | 32863 ft | 482 kts | 82° |
| 2026-05-04 02:09 | 42.35815 | -101.25279 | 32862 ft | 481 kts | 82° |
| 2026-05-04 02:10 | 42.36310 | -101.16258 | 32849 ft | 481 kts | 82° |
| 2026-05-04 02:10 | 42.36796 | -101.07249 | 32847 ft | 480 kts | 82° |
| 2026-05-04 02:11 | 42.37276 | -100.98248 | 32849 ft | 480 kts | 83° |
| 2026-05-04 02:11 | 42.37748 | -100.89249 | 32841 ft | 479 kts | 83° |
| 2026-05-04 02:12 | 42.38212 | -100.80253 | 32842 ft | 479 kts | 83° |
| 2026-05-04 02:12 | 42.38667 | -100.71324 | 32849 ft | 479 kts | 83° |
| 2026-05-04 02:13 | 42.39117 | -100.62344 | 32846 ft | 479 kts | 83° |
| 2026-05-04 02:13 | 42.39562 | -100.53301 | 32845 ft | 478 kts | 83° |
| 2026-05-04 02:14 | 42.39995 | -100.44387 | 32843 ft | 478 kts | 83° |
| 2026-05-04 02:14 | 42.40423 | -100.35422 | 32843 ft | 477 kts | 83° |
| 2026-05-04 02:15 | 42.40844 | -100.26459 | 32853 ft | 477 kts | 83° |
| 2026-05-04 02:15 | 42.41257 | -100.17496 | 32852 ft | 477 kts | 83° |
| 2026-05-04 02:16 | 42.41663 | -100.08549 | 32853 ft | 476 kts | 83° |
| 2026-05-04 02:16 | 42.42063 | -99.99596 | 32849 ft | 476 kts | 83° |
| 2026-05-04 02:17 | 42.42454 | -99.90652 | 32855 ft | 476 kts | 83° |
| 2026-05-04 02:17 | 42.42837 | -99.81765 | 32847 ft | 475 kts | 84° |
| 2026-05-04 02:18 | 42.43214 | -99.72837 | 32847 ft | 475 kts | 84° |
| 2026-05-04 02:18 | 42.43584 | -99.63905 | 32846 ft | 475 kts | 84° |
| 2026-05-04 02:19 | 42.43947 | -99.54998 | 32845 ft | 474 kts | 84° |
| 2026-05-04 02:19 | 42.44303 | -99.46070 | 32847 ft | 474 kts | 84° |
| 2026-05-04 02:20 | 42.44652 | -99.37154 | 32852 ft | 474 kts | 84° |
| 2026-05-04 02:20 | 42.44992 | -99.28295 | 32849 ft | 474 kts | 84° |
| 2026-05-04 02:21 | 42.45327 | -99.19381 | 32853 ft | 474 kts | 84° |
| 2026-05-04 02:21 | 42.45655 | -99.10472 | 32851 ft | 474 kts | 84° |
| 2026-05-04 02:22 | 42.45976 | -99.01556 | 32851 ft | 474 kts | 84° |
| 2026-05-04 02:22 | 42.46290 | -98.92635 | 32851 ft | 474 kts | 84° |
| 2026-05-04 02:23 | 42.46595 | -98.83787 | 32852 ft | 474 kts | 84° |
| 2026-05-04 02:23 | 42.46897 | -98.74875 | 32851 ft | 473 kts | 84° |
| 2026-05-04 02:24 | 42.47361 | -98.65989 | 32844 ft | 470 kts | 77° |
| 2026-05-04 02:24 | 42.48559 | -98.57306 | 32850 ft | 469 kts | 75° |
| 2026-05-04 02:25 | 42.49857 | -98.48646 | 32854 ft | 468 kts | 75° |
| 2026-05-04 02:25 | 42.51110 | -98.39983 | 32858 ft | 468 kts | 76° |
| 2026-05-04 02:26 | 42.52319 | -98.31306 | 32857 ft | 468 kts | 76° |
| 2026-05-04 02:26 | 42.53510 | -98.22620 | 32853 ft | 468 kts | 76° |
| 2026-05-04 02:27 | 42.54691 | -98.13946 | 32852 ft | 468 kts | 76° |
| 2026-05-04 02:27 | 42.55862 | -98.05310 | 32864 ft | 467 kts | 76° |
| 2026-05-04 02:28 | 42.57032 | -97.96629 | 32865 ft | 467 kts | 76° |
| 2026-05-04 02:28 | 42.58196 | -97.87949 | 32864 ft | 467 kts | 76° |
| 2026-05-04 02:29 | 42.59354 | -97.79263 | 32869 ft | 467 kts | 76° |
| 2026-05-04 02:29 | 42.60506 | -97.70567 | 32870 ft | 467 kts | 76° |
| 2026-05-04 02:30 | 42.61642 | -97.61933 | 32866 ft | 467 kts | 77° |
| 2026-05-04 02:30 | 42.62780 | -97.53239 | 32857 ft | 467 kts | 77° |
| 2026-05-04 02:31 | 42.63910 | -97.44549 | 32852 ft | 467 kts | 77° |
| 2026-05-04 02:31 | 42.65031 | -97.35873 | 32852 ft | 467 kts | 77° |
| 2026-05-04 02:32 | 42.66148 | -97.27176 | 32854 ft | 467 kts | 77° |
| 2026-05-04 02:32 | 42.67251 | -97.18541 | 32834 ft | 467 kts | 77° |
| 2026-05-04 02:33 | 42.68355 | -97.09839 | 32825 ft | 467 kts | 77° |
| 2026-05-04 02:33 | 42.69452 | -97.01132 | 32812 ft | 467 kts | 77° |
| 2026-05-04 02:34 | 42.70545 | -96.92407 | 32818 ft | 467 kts | 77° |
| 2026-05-04 02:34 | 42.71630 | -96.83686 | 32811 ft | 468 kts | 77° |
| 2026-05-04 02:35 | 42.72703 | -96.75005 | 32823 ft | 468 kts | 77° |
| 2026-05-04 02:35 | 42.73775 | -96.66277 | 32823 ft | 468 kts | 77° |
| 2026-05-04 02:36 | 42.74842 | -96.57538 | 32832 ft | 468 kts | 77° |
| 2026-05-04 02:36 | 42.75902 | -96.48789 | 32820 ft | 468 kts | 77° |
| 2026-05-04 02:37 | 42.76958 | -96.40027 | 32822 ft | 468 kts | 77° |
| 2026-05-04 02:37 | 42.77999 | -96.31320 | 32812 ft | 469 kts | 77° |
| 2026-05-04 02:38 | 42.79041 | -96.22554 | 32814 ft | 469 kts | 77° |
| 2026-05-04 02:38 | 42.80075 | -96.13793 | 32815 ft | 469 kts | 77° |
| 2026-05-04 02:39 | 42.81104 | -96.05020 | 32817 ft | 469 kts | 77° |
| 2026-05-04 02:39 | 42.82125 | -95.96248 | 32820 ft | 469 kts | 78° |
| 2026-05-04 02:40 | 42.83140 | -95.87464 | 32823 ft | 469 kts | 78° |
| 2026-05-04 02:40 | 42.84150 | -95.78674 | 32830 ft | 469 kts | 78° |
| 2026-05-04 02:41 | 42.85144 | -95.69956 | 32834 ft | 469 kts | 78° |
| 2026-05-04 02:41 | 42.86140 | -95.61159 | 32835 ft | 469 kts | 78° |
| 2026-05-04 02:42 | 42.87128 | -95.52365 | 32831 ft | 469 kts | 78° |
| 2026-05-04 02:42 | 42.87945 | -95.45058 | 32830 ft | 469 kts | 78° |
| 2026-05-04 02:43 | 42.88921 | -95.36253 | 32833 ft | 470 kts | 78° |
| 2026-05-04 02:43 | 42.89892 | -95.27447 | 32835 ft | 470 kts | 78° |
| 2026-05-04 02:44 | 42.90856 | -95.18630 | 32836 ft | 470 kts | 78° |
| 2026-05-04 02:44 | 42.91813 | -95.09813 | 32827 ft | 470 kts | 78° |
| 2026-05-04 02:45 | 42.92729 | -95.01311 | 32832 ft | 470 kts | 78° |
| 2026-05-04 02:45 | 42.93674 | -94.92477 | 32833 ft | 471 kts | 78° |
| 2026-05-04 02:46 | 42.94613 | -94.83632 | 32831 ft | 471 kts | 78° |
| 2026-05-04 02:46 | 42.95546 | -94.74786 | 32838 ft | 471 kts | 78° |
| 2026-05-04 02:47 | 42.96473 | -94.65924 | 32825 ft | 471 kts | 78° |
| 2026-05-04 02:47 | 42.97390 | -94.57062 | 32827 ft | 471 kts | 78° |
| 2026-05-04 02:48 | 42.98295 | -94.48257 | 32819 ft | 471 kts | 78° |
| 2026-05-04 02:48 | 42.99201 | -94.39372 | 32813 ft | 472 kts | 78° |
| 2026-05-04 02:49 | 43.00100 | -94.30498 | 32808 ft | 472 kts | 78° |
| 2026-05-04 02:49 | 43.00991 | -94.21617 | 32808 ft | 472 kts | 78° |
| 2026-05-04 02:50 | 43.01877 | -94.12730 | 32811 ft | 472 kts | 78° |
| 2026-05-04 02:50 | 43.02755 | -94.03842 | 32819 ft | 472 kts | 78° |
| 2026-05-04 02:51 | 43.03626 | -93.94950 | 32819 ft | 472 kts | 79° |
| 2026-05-04 02:51 | 43.04491 | -93.86056 | 32820 ft | 472 kts | 79° |
| 2026-05-04 02:52 | 43.05344 | -93.77207 | 32816 ft | 472 kts | 79° |
| 2026-05-04 02:52 | 43.06196 | -93.68292 | 32817 ft | 472 kts | 79° |
| 2026-05-04 02:53 | 43.07041 | -93.59381 | 32817 ft | 472 kts | 79° |
| 2026-05-04 02:53 | 43.07880 | -93.50457 | 32809 ft | 473 kts | 79° |
| 2026-05-04 02:54 | 43.08711 | -93.41548 | 32809 ft | 473 kts | 79° |
| 2026-05-04 02:54 | 43.09523 | -93.32613 | 32805 ft | 474 kts | 81° |
| 2026-05-04 02:55 | 43.09956 | -93.19049 | 32808 ft | 476 kts | 85° |
| 2026-05-04 02:56 | 43.10105 | -93.10055 | 32803 ft | 476 kts | 85° |
| 2026-05-04 02:56 | 43.10288 | -93.00994 | 32802 ft | 476 kts | 84° |
| 2026-05-04 02:57 | 43.10491 | -92.91930 | 32806 ft | 476 kts | 84° |
| 2026-05-04 02:57 | 43.10694 | -92.82881 | 32813 ft | 476 kts | 84° |
| 2026-05-04 02:58 | 43.10889 | -92.73823 | 32815 ft | 476 kts | 84° |
| 2026-05-04 02:58 | 43.11076 | -92.64764 | 32814 ft | 476 kts | 85° |
| 2026-05-04 02:59 | 43.11255 | -92.55705 | 32817 ft | 476 kts | 85° |
| 2026-05-04 02:59 | 43.11426 | -92.46639 | 32814 ft | 477 kts | 85° |
| 2026-05-04 03:00 | 43.11591 | -92.37570 | 32811 ft | 477 kts | 85° |
| 2026-05-04 03:00 | 43.11748 | -92.28491 | 32806 ft | 477 kts | 85° |
| 2026-05-04 03:01 | 43.11899 | -92.19422 | 32803 ft | 477 kts | 85° |
| 2026-05-04 03:01 | 43.12042 | -92.10339 | 32800 ft | 477 kts | 85° |
| 2026-05-04 03:02 | 43.12178 | -92.01262 | 32791 ft | 477 kts | 85° |
| 2026-05-04 03:02 | 43.12307 | -91.92183 | 32796 ft | 477 kts | 85° |
| 2026-05-04 03:03 | 43.12428 | -91.83152 | 32799 ft | 477 kts | 85° |
| 2026-05-04 03:03 | 43.12543 | -91.74059 | 32791 ft | 478 kts | 85° |
| 2026-05-04 03:04 | 43.12650 | -91.64971 | 32792 ft | 478 kts | 85° |
| 2026-05-04 03:04 | 43.12751 | -91.55880 | 32796 ft | 478 kts | 85° |
| 2026-05-04 03:05 | 43.12844 | -91.46786 | 32790 ft | 478 kts | 85° |
| 2026-05-04 03:05 | 43.12930 | -91.37686 | 32792 ft | 478 kts | 85° |
| 2026-05-04 03:06 | 43.13009 | -91.28589 | 32784 ft | 478 kts | 85° |
| 2026-05-04 03:06 | 43.13082 | -91.19488 | 32789 ft | 478 kts | 85° |
| 2026-05-04 03:07 | 43.13151 | -91.10391 | 32792 ft | 478 kts | 85° |
| 2026-05-04 03:07 | 43.13220 | -91.01297 | 32780 ft | 478 kts | 85° |
| 2026-05-04 03:08 | 43.13283 | -90.92203 | 32788 ft | 478 kts | 85° |
| 2026-05-04 03:08 | 43.13338 | -90.83108 | 32788 ft | 478 kts | 85° |
| 2026-05-04 03:09 | 43.13385 | -90.74010 | 32784 ft | 478 kts | 85° |
| 2026-05-04 03:09 | 43.13425 | -90.64922 | 32792 ft | 478 kts | 85° |
| 2026-05-04 03:10 | 43.13458 | -90.55833 | 32784 ft | 477 kts | 85° |
| 2026-05-04 03:10 | 43.13484 | -90.46803 | 32785 ft | 477 kts | 85° |
| 2026-05-04 03:11 | 43.13503 | -90.37721 | 32770 ft | 477 kts | 86° |
| 2026-05-04 03:11 | 43.13507 | -90.28629 | 32772 ft | 477 kts | 86° |
| 2026-05-04 03:12 | 43.13499 | -90.19535 | 32773 ft | 477 kts | 86° |
| 2026-05-04 03:12 | 43.13486 | -90.10445 | 32767 ft | 477 kts | 86° |
| 2026-05-04 03:13 | 43.13468 | -90.01359 | 32768 ft | 477 kts | 86° |
| 2026-05-04 03:13 | 43.13441 | -89.92270 | 32767 ft | 478 kts | 86° |
| 2026-05-04 03:14 | 43.13408 | -89.83172 | 32757 ft | 478 kts | 86° |
| 2026-05-04 03:14 | 43.13368 | -89.74073 | 32759 ft | 478 kts | 86° |
| 2026-05-04 03:15 | 43.13320 | -89.64978 | 32761 ft | 478 kts | 86° |
| 2026-05-04 03:15 | 43.13265 | -89.55881 | 32759 ft | 478 kts | 86° |
| 2026-05-04 03:16 | 43.13203 | -89.46781 | 32764 ft | 478 kts | 86° |
| 2026-05-04 03:16 | 43.13135 | -89.37680 | 32757 ft | 478 kts | 86° |
| 2026-05-04 03:17 | 43.13058 | -89.28620 | 32759 ft | 478 kts | 86° |
| 2026-05-04 03:17 | 43.12969 | -89.19533 | 32762 ft | 478 kts | 86° |
| 2026-05-04 03:18 | 43.12874 | -89.10418 | 32755 ft | 477 kts | 86° |
| 2026-05-04 03:18 | 43.12772 | -89.01335 | 32763 ft | 477 kts | 86° |
| 2026-05-04 03:19 | 43.12664 | -88.92307 | 32750 ft | 477 kts | 86° |
| 2026-05-04 03:19 | 43.12549 | -88.83234 | 32750 ft | 477 kts | 86° |
| 2026-05-04 03:20 | 43.12427 | -88.74160 | 32763 ft | 477 kts | 87° |
| 2026-05-04 03:20 | 43.12297 | -88.65076 | 32768 ft | 477 kts | 87° |
| 2026-05-04 03:21 | 43.12160 | -88.56003 | 32756 ft | 477 kts | 87° |
| 2026-05-04 03:21 | 43.12017 | -88.46988 | 32761 ft | 477 kts | 87° |
| 2026-05-04 03:22 | 43.11866 | -88.37910 | 32767 ft | 477 kts | 87° |
| 2026-05-04 03:22 | 43.11748 | -88.28840 | 32764 ft | 475 kts | 83° |
| 2026-05-04 03:23 | 43.12646 | -88.19972 | 32775 ft | 469 kts | 75° |
| 2026-05-04 03:23 | 43.13841 | -88.11202 | 32779 ft | 469 kts | 74° |
| 2026-05-04 03:24 | 43.15005 | -88.02417 | 32779 ft | 470 kts | 75° |
| 2026-05-04 03:24 | 43.16126 | -87.93592 | 32778 ft | 470 kts | 75° |
| 2026-05-04 03:25 | 43.17229 | -87.84752 | 32769 ft | 471 kts | 75° |
| 2026-05-04 03:25 | 43.18318 | -87.75963 | 32771 ft | 471 kts | 75° |
| 2026-05-04 03:26 | 43.19409 | -87.67114 | 32753 ft | 471 kts | 75° |
| 2026-05-04 03:26 | 43.20494 | -87.58262 | 32748 ft | 471 kts | 75° |
| 2026-05-04 03:27 | 43.21574 | -87.49392 | 32746 ft | 471 kts | 75° |
| 2026-05-04 03:27 | 43.22647 | -87.40519 | 32748 ft | 471 kts | 75° |
| 2026-05-04 03:28 | 43.23533 | -87.33148 | 32754 ft | 471 kts | 75° |
| 2026-05-04 03:28 | 43.24594 | -87.24263 | 32748 ft | 471 kts | 75° |
| 2026-05-04 03:29 | 43.25649 | -87.15384 | 32753 ft | 471 kts | 75° |
| 2026-05-04 03:29 | 43.26362 | -87.06406 | 32767 ft | 475 kts | 82° |
| 2026-05-04 03:30 | 43.26671 | -86.97336 | 32759 ft | 476 kts | 83° |
| 2026-05-04 03:30 | 43.26958 | -86.88310 | 32755 ft | 476 kts | 82° |
| 2026-05-04 03:31 | 43.27280 | -86.79240 | 32753 ft | 476 kts | 82° |
| 2026-05-04 03:31 | 43.27616 | -86.70175 | 32760 ft | 475 kts | 82° |
| 2026-05-04 03:32 | 43.27946 | -86.61117 | 32762 ft | 475 kts | 82° |
| 2026-05-04 03:32 | 43.28268 | -86.52054 | 32775 ft | 475 kts | 83° |
| 2026-05-04 03:33 | 43.28581 | -86.42988 | 32773 ft | 475 kts | 83° |
| 2026-05-04 03:33 | 43.28887 | -86.33933 | 32782 ft | 475 kts | 83° |
| 2026-05-04 03:34 | 43.29184 | -86.24935 | 32781 ft | 475 kts | 83° |
| 2026-05-04 03:34 | 43.29475 | -86.15885 | 32779 ft | 475 kts | 83° |
| 2026-05-04 03:35 | 43.29761 | -86.06825 | 32772 ft | 475 kts | 83° |
| 2026-05-04 03:35 | 43.29935 | -85.97763 | 32771 ft | 476 kts | 85° |
| 2026-05-04 03:36 | 43.29964 | -85.88681 | 32776 ft | 476 kts | 85° |
| 2026-05-04 03:36 | 43.29993 | -85.79600 | 32778 ft | 475 kts | 85° |
| 2026-05-04 03:37 | 43.30036 | -85.70516 | 32782 ft | 475 kts | 85° |
| 2026-05-04 03:37 | 43.30080 | -85.61443 | 32793 ft | 475 kts | 85° |
| 2026-05-04 03:38 | 43.30117 | -85.52343 | 32395 ft | 482 kts | 85° |
| 2026-05-04 03:38 | 43.30134 | -85.47717 | 31644 ft | 485 kts | 85° |
| 2026-05-04 03:38 | 43.30147 | -85.43091 | 30925 ft | 481 kts | 85° |
| 2026-05-04 03:38 | 43.30155 | -85.38538 | 30359 ft | 475 kts | 84° |
| 2026-05-04 03:39 | 43.30164 | -85.34023 | 29734 ft | 470 kts | 84° |
| 2026-05-04 03:39 | 43.30172 | -85.29632 | 29077 ft | 464 kts | 84° |
| 2026-05-04 03:39 | 43.30038 | -85.25225 | 28467 ft | 463 kts | 93° |
| 2026-05-04 03:39 | 43.29344 | -85.20909 | 27885 ft | 463 kts | 104° |
| 2026-05-04 03:40 | 43.28167 | -85.16819 | 27302 ft | 461 kts | 114° |
| 2026-05-04 03:40 | 43.26524 | -85.13047 | 26735 ft | 459 kts | 121° |
| 2026-05-04 03:40 | 43.24776 | -85.09409 | 26144 ft | 455 kts | 122° |
| 2026-05-04 03:40 | 43.23032 | -85.05806 | 25571 ft | 451 kts | 122° |
| 2026-05-04 03:41 | 43.21316 | -85.02224 | 25010 ft | 448 kts | 122° |
| 2026-05-04 03:41 | 43.19630 | -84.98660 | 24452 ft | 444 kts | 122° |
| 2026-05-04 03:41 | 43.17966 | -84.95113 | 23902 ft | 441 kts | 122° |
| 2026-05-04 03:41 | 43.16290 | -84.91531 | 23340 ft | 439 kts | 122° |
| 2026-05-04 03:42 | 43.14671 | -84.88080 | 22847 ft | 433 kts | 122° |
| 2026-05-04 03:42 | 43.13061 | -84.84678 | 22606 ft | 421 kts | 123° |
| 2026-05-04 03:42 | 43.11432 | -84.81382 | 22246 ft | 414 kts | 124° |
| 2026-05-04 03:42 | 43.09804 | -84.78164 | 21922 ft | 410 kts | 124° |
| 2026-05-04 03:43 | 43.08168 | -84.74947 | 21602 ft | 413 kts | 125° |
| 2026-05-04 03:43 | 43.06526 | -84.71711 | 21344 ft | 416 kts | 124° |
| 2026-05-04 03:43 | 43.04876 | -84.68450 | 20991 ft | 417 kts | 124° |
| 2026-05-04 03:43 | 43.03229 | -84.65189 | 20674 ft | 415 kts | 125° |
| 2026-05-04 03:44 | 43.01599 | -84.61959 | 20341 ft | 412 kts | 125° |
| 2026-05-04 03:44 | 42.99977 | -84.58747 | 20006 ft | 409 kts | 125° |
| 2026-05-04 03:44 | 42.98366 | -84.55557 | 19679 ft | 407 kts | 125° |
| 2026-05-04 03:44 | 42.96763 | -84.52388 | 19355 ft | 405 kts | 125° |
| 2026-05-04 03:45 | 42.95167 | -84.49238 | 19029 ft | 403 kts | 125° |
| 2026-05-04 03:45 | 42.93580 | -84.46087 | 18658 ft | 402 kts | 125° |
| 2026-05-04 03:45 | 42.92014 | -84.42927 | 18282 ft | 402 kts | 125° |
| 2026-05-04 03:45 | 42.90454 | -84.39762 | 17860 ft | 400 kts | 125° |
| 2026-05-04 03:46 | 42.88910 | -84.36629 | 17441 ft | 396 kts | 125° |
| 2026-05-04 03:46 | 42.87381 | -84.33531 | 17019 ft | 391 kts | 125° |
| 2026-05-04 03:46 | 42.85869 | -84.30477 | 16659 ft | 386 kts | 125° |
| 2026-05-04 03:46 | 42.84373 | -84.27461 | 16277 ft | 382 kts | 125° |
| 2026-05-04 03:47 | 42.82889 | -84.24472 | 15912 ft | 379 kts | 125° |
| 2026-05-04 03:47 | 42.81418 | -84.21514 | 15563 ft | 376 kts | 126° |
| 2026-05-04 03:47 | 42.79959 | -84.18583 | 15192 ft | 373 kts | 126° |
| 2026-05-04 03:47 | 42.78504 | -84.15662 | 14857 ft | 371 kts | 126° |
| 2026-05-04 03:48 | 42.77058 | -84.12764 | 14503 ft | 369 kts | 126° |
| 2026-05-04 03:48 | 42.75615 | -84.09874 | 14154 ft | 368 kts | 126° |
| 2026-05-04 03:48 | 42.74181 | -84.06998 | 13804 ft | 367 kts | 126° |
| 2026-05-04 03:48 | 42.72746 | -84.04120 | 13429 ft | 366 kts | 126° |
| 2026-05-04 03:49 | 42.71337 | -84.01298 | 13049 ft | 365 kts | 126° |
| 2026-05-04 03:49 | 42.69917 | -83.98457 | 12672 ft | 358 kts | 126° |
| 2026-05-04 03:49 | 42.68661 | -83.95712 | 12327 ft | 350 kts | 114° |
| 2026-05-04 03:49 | 42.67942 | -83.92575 | 12036 ft | 339 kts | 104° |
| 2026-05-04 03:50 | 42.67397 | -83.89535 | 11702 ft | 333 kts | 103° |
| 2026-05-04 03:50 | 42.66859 | -83.86494 | 11381 ft | 330 kts | 103° |
| 2026-05-04 03:50 | 42.66314 | -83.83464 | 11068 ft | 330 kts | 104° |
| 2026-05-04 03:50 | 42.65750 | -83.80393 | 10747 ft | 332 kts | 104° |
| 2026-05-04 03:51 | 42.65187 | -83.77379 | 10448 ft | 334 kts | 104° |
| 2026-05-04 03:51 | 42.64606 | -83.74293 | 10113 ft | 331 kts | 104° |
| 2026-05-04 03:51 | 42.64046 | -83.71329 | 9878 ft | 324 kts | 104° |
| 2026-05-04 03:51 | 42.63496 | -83.68435 | 9892 ft | 309 kts | 105° |
| 2026-05-04 03:52 | 42.62953 | -83.65580 | 9270 ft | 317 kts | 105° |
| 2026-05-04 03:52 | 42.62394 | -83.62690 | 8891 ft | 316 kts | 106° |
| 2026-05-04 03:52 | 42.61795 | -83.59833 | 8569 ft | 313 kts | 107° |
| 2026-05-04 03:52 | 42.61384 | -83.57920 | 8350 ft | 311 kts | 107° |
| 2026-05-04 03:53 | 42.61050 | -83.56373 | 8180 ft | 310 kts | 107° |
| 2026-05-04 03:53 | 42.60451 | -83.53598 | 7876 ft | 304 kts | 107° |
| 2026-05-04 03:53 | 42.59866 | -83.50880 | 7582 ft | 297 kts | 107° |
| 2026-05-04 03:53 | 42.59295 | -83.48219 | 7285 ft | 290 kts | 108° |
| 2026-05-04 03:54 | 42.58736 | -83.45611 | 7028 ft | 286 kts | 108° |
| 2026-05-04 03:54 | 42.58181 | -83.43024 | 6755 ft | 285 kts | 108° |
| 2026-05-04 03:54 | 42.57628 | -83.40450 | 6487 ft | 282 kts | 108° |
| 2026-05-04 03:54 | 42.57085 | -83.37919 | 6209 ft | 277 kts | 108° |
| 2026-05-04 03:55 | 42.56574 | -83.35416 | 5909 ft | 274 kts | 101° |
| 2026-05-04 03:55 | 42.56452 | -83.32859 | 5591 ft | 270 kts | 90° |
| 2026-05-04 03:55 | 42.56488 | -83.30309 | 5284 ft | 270 kts | 89° |
| 2026-05-04 03:55 | 42.56519 | -83.27783 | 5013 ft | 266 kts | 90° |
| 2026-05-04 03:56 | 42.56533 | -83.25302 | 4714 ft | 261 kts | 91° |
| 2026-05-04 03:56 | 42.56534 | -83.22858 | 4379 ft | 256 kts | 95° |
| 2026-05-04 03:56 | 42.56112 | -83.20615 | 4055 ft | 236 kts | 131° |
| 2026-05-04 03:56 | 42.55064 | -83.19173 | 3973 ft | 200 kts | 160° |
| 2026-05-04 03:57 | 42.53863 | -83.18402 | 3956 ft | 186 kts | 176° |
| 2026-05-04 03:57 | 42.52613 | -83.18149 | 3976 ft | 180 kts | 188° |
| 2026-05-04 03:57 | 42.51376 | -83.18052 | 3954 ft | 177 kts | 189° |
| 2026-05-04 03:57 | 42.50217 | -83.18257 | 3970 ft | 167 kts | 213° |
| 2026-05-04 03:58 | 42.48103 | -83.19677 | 3953 ft | 169 kts | 213° |
| 2026-05-04 03:58 | 42.47041 | -83.20371 | 3962 ft | 167 kts | 214° |
| 2026-05-04 03:58 | 42.46013 | -83.21050 | 3949 ft | 166 kts | 214° |
| 2026-05-04 03:59 | 42.44977 | -83.21736 | 3952 ft | 166 kts | 214° |
| 2026-05-04 03:59 | 42.43935 | -83.22407 | 3967 ft | 166 kts | 213° |
| 2026-05-04 03:59 | 42.42890 | -83.23076 | 3971 ft | 167 kts | 214° |
| 2026-05-04 03:59 | 42.41836 | -83.23768 | 3846 ft | 168 kts | 213° |
| 2026-05-04 04:00 | 42.40807 | -83.24448 | 3717 ft | 161 kts | 213° |
| 2026-05-04 04:00 | 42.39817 | -83.25108 | 3630 ft | 157 kts | 214° |
| 2026-05-04 04:00 | 42.38848 | -83.25758 | 3520 ft | 154 kts | 214° |
| 2026-05-04 04:00 | 42.37898 | -83.26404 | 3433 ft | 152 kts | 213° |
| 2026-05-04 04:01 | 42.36945 | -83.27044 | 3339 ft | 153 kts | 213° |
| 2026-05-04 04:01 | 42.35997 | -83.27677 | 3244 ft | 150 kts | 212° |
| 2026-05-04 04:01 | 42.35094 | -83.28275 | 3146 ft | 139 kts | 212° |
| 2026-05-04 04:01 | 42.34244 | -83.28841 | 3050 ft | 134 kts | 212° |
| 2026-05-04 04:02 | 42.33407 | -83.29399 | 2916 ft | 133 kts | 212° |
| 2026-05-04 04:02 | 42.32595 | -83.29938 | 2772 ft | 128 kts | 211° |
| 2026-05-04 04:02 | 42.31803 | -83.30465 | 2598 ft | 126 kts | 211° |
| 2026-05-04 04:02 | 42.31041 | -83.30972 | 2523 ft | 117 kts | 211° |
| 2026-05-04 04:03 | 42.30314 | -83.31456 | 2410 ft | 116 kts | 211° |
| 2026-05-04 04:03 | 42.29584 | -83.31942 | 2273 ft | 118 kts | 209° |
| 2026-05-04 04:03 | 42.28855 | -83.32427 | 2090 ft | 115 kts | 208° |
| 2026-05-04 04:03 | 42.28147 | -83.32898 | 1938 ft | 112 kts | 208° |
| 2026-05-04 04:04 | 42.27448 | -83.33346 | 1799 ft | 117 kts | 206° |
| 2026-05-04 04:04 | 42.26679 | -83.33795 | 1663 ft | 123 kts | 205° |
| 2026-05-04 04:04 | 42.25876 | -83.34302 | 1491 ft | 130 kts | 206° |
| 2026-05-04 04:04 | 42.25075 | -83.34854 | 1267 ft | 130 kts | 207° |
| 2026-05-04 04:05 | 42.24253 | -83.35442 | 1046 ft | 137 kts | 206° |
| 2026-05-04 04:05 | 42.23406 | -83.36055 | 853 ft | 135 kts | 206° |
| 2026-05-04 04:05 | 42.22587 | -83.36659 | 682 ft | 134 kts | 207° |
| 2026-05-04 04:05 | 42.21841 | -83.37206 | 642 ft | 104 kts | 208° |
| 2026-05-04 04:06 | 42.21335 | -83.37577 | 647 ft | 62 kts | 211° |
| 2026-05-04 04:06 | 42.21090 | -83.37736 | 646 ft | 29 kts | 195° |
| 2026-05-04 04:06 | 42.20907 | -83.37718 | 646 ft | 26 kts | 163° |
| 2026-05-04 04:06 | 42.20739 | -83.37764 | 646 ft | 24 kts | 208° |
| 2026-05-04 04:07 | 42.20597 | -83.37870 | 646 ft | 23 kts | 208° |
| 2026-05-04 04:07 | 42.20459 | -83.37972 | 647 ft | 22 kts | 208° |
| 2026-05-04 04:07 | 42.20325 | -83.38070 | 647 ft | 22 kts | 208° |
| 2026-05-04 04:07 | 42.20196 | -83.38164 | 646 ft | 18 kts | 208° |
| 2026-05-04 04:08 | 42.20113 | -83.38113 | 646 ft | 14 kts | 119° |
| 2026-05-04 04:08 | 42.20055 | -83.38004 | 647 ft | 15 kts | 146° |
| 2026-05-04 04:08 | 42.19956 | -83.37923 | 647 ft | 18 kts | 149° |
| 2026-05-04 04:08 | 42.19844 | -83.37819 | 647 ft | 21 kts | 132° |
| 2026-05-04 04:09 | 42.19763 | -83.37638 | 647 ft | 24 kts | 119° |
| 2026-05-04 04:09 | 42.19678 | -83.37431 | 647 ft | 26 kts | 119° |
| 2026-05-04 04:09 | 42.19593 | -83.37203 | 647 ft | 28 kts | 103° |
| 2026-05-04 04:09 | 42.19662 | -83.36969 | 647 ft | 29 kts | 34° |
| 2026-05-04 04:10 | 42.19841 | -83.36829 | 647 ft | 31 kts | 29° |
| 2026-05-04 04:10 | 42.20032 | -83.36688 | 647 ft | 31 kts | 29° |
| 2026-05-04 04:10 | 42.20198 | -83.36559 | 645 ft | 14 kts | 50° |
| 2026-05-04 04:10 | 42.20209 | -83.36452 | 645 ft | 11 kts | 72° |
| 2026-05-04 04:11 | 42.20273 | -83.36399 | 645 ft | 11 kts | 12° |
| 2026-05-04 04:11 | 42.20342 | -83.36359 | 645 ft | 10 kts | 27° |
| 2026-05-04 04:11 | 42.20402 | -83.36317 | 645 ft | 8 kts | 31° |
| 2026-05-04 04:11 | 42.20418 | -83.36292 | 647 ft | 3 kts | 59° |
| 2026-05-04 04:12 | 42.20424 | -83.36263 | 645 ft | 3 kts | 88° |
| 2026-05-04 04:12 | 42.20417 | -83.36236 | 645 ft | 3 kts | 112° |
| 2026-05-04 04:12 | 42.20408 | -83.36211 | 646 ft | 3 kts | 118° |
| 2026-05-04 04:12 | 42.20401 | -83.36194 | 647 ft | 3 kts | 118° |
| 2026-05-04 04:13 | 42.20399 | -83.36190 | 646 ft | 0 kts | 118° |